VLG3YU LEBL-EHAM
Flight info
| Callsign | VLG3YU |
|---|---|
| Flight time | N/A |
| Altitude | 36000 |
| Route | OLOXO DCT OKABI/N0452F360 DCT TOU DCT ADABI DCT BOKNO UN858 VANAD UN874 BAMES UT191 PODEM UN873 BAZOS DCT LUMIL DCT BELOB UY873 DENUT |
| Aircraft | A320/M-SDE3FGHIRWY/LB1 |
Departure
| Time | 2026-04-30 14:35 |
|---|---|
| Airport | Josep Tarradellas Barcelona-El Prat Airport (LEBL) |
Arrival
| Time | N/A |
|---|---|
| Airport | Amsterdam Airport Schiphol (EHAM) |
| Time | Latitude | Longitude | Altitude | Speed | Heading |
|---|---|---|---|---|---|
| 2026-04-30 14:13 | 41.29325 | 2.07825 | 18 ft | 0 kts | 65° |
| 2026-04-30 14:28 | 41.29328 | 2.07835 | 18 ft | 4 kts | 66° |
| 2026-04-30 14:28 | 41.29336 | 2.07888 | 18 ft | 7 kts | 103° |
| 2026-04-30 14:29 | 41.29265 | 2.07938 | 20 ft | 8 kts | 153° |
| 2026-04-30 14:29 | 41.29277 | 2.08053 | 19 ft | 11 kts | 66° |
| 2026-04-30 14:30 | 41.29343 | 2.08248 | 20 ft | 7 kts | 65° |
| 2026-04-30 14:31 | 41.29302 | 2.08418 | 22 ft | 14 kts | 156° |
| 2026-04-30 14:31 | 41.29098 | 2.08400 | 19 ft | 16 kts | 199° |
| 2026-04-30 14:31 | 41.28998 | 2.08353 | 18 ft | 15 kts | 198° |
| 2026-04-30 14:32 | 41.28784 | 2.08256 | 16 ft | 20 kts | 199° |
| 2026-04-30 14:32 | 41.28679 | 2.08189 | 17 ft | 14 kts | 230° |
| 2026-04-30 14:32 | 41.28640 | 2.08081 | 19 ft | 12 kts | 246° |
| 2026-04-30 14:33 | 41.28605 | 2.07979 | 18 ft | 11 kts | 245° |
| 2026-04-30 14:33 | 41.28513 | 2.07708 | 16 ft | 19 kts | 245° |
| 2026-04-30 14:33 | 41.28454 | 2.07578 | 16 ft | 15 kts | 213° |
| 2026-04-30 14:34 | 41.28362 | 2.07533 | 17 ft | 13 kts | 199° |
| 2026-04-30 14:34 | 41.28302 | 2.07469 | 17 ft | 10 kts | 243° |
| 2026-04-30 14:34 | 41.28257 | 2.07423 | 17 ft | 8 kts | 164° |
| 2026-04-30 14:34 | 41.28243 | 2.07474 | 19 ft | 11 kts | 81° |
| 2026-04-30 14:35 | 41.28509 | 2.08243 | 22 ft | 106 kts | 65° |
| 2026-04-30 14:35 | 41.29037 | 2.09785 | 156 ft | 159 kts | 66° |
| 2026-04-30 14:35 | 41.29390 | 2.11139 | 953 ft | 155 kts | 85° |
| 2026-04-30 14:36 | 41.29260 | 2.12605 | 1476 ft | 171 kts | 99° |
| 2026-04-30 14:36 | 41.29134 | 2.13709 | 1715 ft | 186 kts | 97° |
| 2026-04-30 14:36 | 41.28964 | 2.15500 | 2181 ft | 202 kts | 95° |
| 2026-04-30 14:36 | 41.28798 | 2.17354 | 3011 ft | 203 kts | 95° |
| 2026-04-30 14:37 | 41.28631 | 2.19229 | 3799 ft | 207 kts | 96° |
| 2026-04-30 14:37 | 41.28457 | 2.21144 | 4553 ft | 210 kts | 97° |
| 2026-04-30 14:37 | 41.28277 | 2.23090 | 5304 ft | 214 kts | 97° |
| 2026-04-30 14:37 | 41.28093 | 2.25075 | 6033 ft | 219 kts | 98° |
| 2026-04-30 14:38 | 41.27902 | 2.27105 | 6739 ft | 223 kts | 98° |
| 2026-04-30 14:38 | 41.28036 | 2.29172 | 7378 ft | 232 kts | 66° |
| 2026-04-30 14:38 | 41.29104 | 2.30801 | 7895 ft | 247 kts | 28° |
| 2026-04-30 14:38 | 41.30813 | 2.31481 | 8237 ft | 269 kts | 8° |
| 2026-04-30 14:39 | 41.32748 | 2.31779 | 8677 ft | 288 kts | 3° |
| 2026-04-30 14:39 | 41.34776 | 2.31961 | 9419 ft | 295 kts | 1° |
| 2026-04-30 14:39 | 41.36845 | 2.32128 | 10219 ft | 300 kts | 1° |
| 2026-04-30 14:40 | 41.41336 | 2.32560 | 10748 ft | 347 kts | 3° |
| 2026-04-30 14:40 | 41.43806 | 2.32883 | 11130 ft | 363 kts | 5° |
| 2026-04-30 14:40 | 41.46295 | 2.33385 | 11787 ft | 369 kts | 8° |
| 2026-04-30 14:40 | 41.48830 | 2.34014 | 12516 ft | 373 kts | 9° |
| 2026-04-30 14:41 | 41.51393 | 2.34701 | 13278 ft | 378 kts | 9° |
| 2026-04-30 14:41 | 41.52482 | 2.34996 | 13604 ft | 379 kts | 9° |
| 2026-04-30 14:41 | 41.55084 | 2.35689 | 14278 ft | 383 kts | 9° |
| 2026-04-30 14:41 | 41.57720 | 2.36370 | 14946 ft | 386 kts | 9° |
| 2026-04-30 14:42 | 41.60382 | 2.37035 | 15597 ft | 389 kts | 8° |
| 2026-04-30 14:42 | 41.63074 | 2.37522 | 16221 ft | 390 kts | 358° |
| 2026-04-30 14:42 | 41.65740 | 2.36986 | 16818 ft | 388 kts | 339° |
| 2026-04-30 14:42 | 41.68132 | 2.35382 | 17431 ft | 385 kts | 321° |
| 2026-04-30 14:43 | 41.70041 | 2.32887 | 18027 ft | 384 kts | 304° |
| 2026-04-30 14:43 | 41.71289 | 2.29746 | 18598 ft | 383 kts | 287° |
| 2026-04-30 14:43 | 41.71818 | 2.26305 | 19101 ft | 384 kts | 276° |
| 2026-04-30 14:43 | 41.72156 | 2.22697 | 19643 ft | 386 kts | 276° |
| 2026-04-30 14:44 | 41.72484 | 2.19119 | 20162 ft | 389 kts | 276° |
| 2026-04-30 14:44 | 41.72908 | 2.15527 | 20666 ft | 392 kts | 284° |
| 2026-04-30 14:44 | 41.74012 | 2.12173 | 21146 ft | 398 kts | 301° |
| 2026-04-30 14:44 | 41.75868 | 2.09407 | 21620 ft | 405 kts | 320° |
| 2026-04-30 14:45 | 41.78232 | 2.07300 | 22093 ft | 410 kts | 325° |
| 2026-04-30 14:45 | 41.80623 | 2.05284 | 22593 ft | 412 kts | 325° |
| 2026-04-30 14:45 | 41.83059 | 2.03233 | 23072 ft | 415 kts | 325° |
| 2026-04-30 14:45 | 41.85508 | 2.01164 | 23546 ft | 418 kts | 325° |
| 2026-04-30 14:46 | 41.87971 | 1.99074 | 23965 ft | 420 kts | 325° |
| 2026-04-30 14:46 | 41.90441 | 1.96972 | 24359 ft | 422 kts | 325° |
| 2026-04-30 14:46 | 41.92924 | 1.94855 | 24749 ft | 423 kts | 324° |
| 2026-04-30 14:46 | 41.95415 | 1.92727 | 25145 ft | 425 kts | 324° |
| 2026-04-30 14:47 | 41.97912 | 1.90589 | 25538 ft | 426 kts | 324° |
| 2026-04-30 14:47 | 42.00412 | 1.88448 | 25926 ft | 428 kts | 324° |
| 2026-04-30 14:47 | 42.02932 | 1.86293 | 26315 ft | 430 kts | 324° |
| 2026-04-30 14:47 | 42.05463 | 1.84129 | 26692 ft | 431 kts | 324° |
| 2026-04-30 14:48 | 42.07996 | 1.81965 | 27056 ft | 433 kts | 324° |
| 2026-04-30 14:48 | 42.10519 | 1.79804 | 27404 ft | 435 kts | 323° |
| 2026-04-30 14:48 | 42.13074 | 1.77608 | 27775 ft | 436 kts | 323° |
| 2026-04-30 14:48 | 42.15631 | 1.75407 | 28142 ft | 438 kts | 323° |
| 2026-04-30 14:49 | 42.18208 | 1.73184 | 28490 ft | 439 kts | 323° |
| 2026-04-30 14:49 | 42.20799 | 1.70946 | 28851 ft | 441 kts | 323° |
| 2026-04-30 14:49 | 42.23108 | 1.68955 | 29144 ft | 442 kts | 323° |
| 2026-04-30 14:49 | 42.25709 | 1.66712 | 29503 ft | 443 kts | 323° |
| 2026-04-30 14:50 | 42.30900 | 1.62234 | 30427 ft | 440 kts | 323° |
| 2026-04-30 14:50 | 42.33473 | 1.60007 | 30831 ft | 438 kts | 322° |
| 2026-04-30 14:51 | 42.38574 | 1.55586 | 31659 ft | 434 kts | 322° |
| 2026-04-30 14:51 | 42.41110 | 1.53450 | 32065 ft | 434 kts | 326° |
| 2026-04-30 14:51 | 42.46875 | 1.50753 | 32824 ft | 447 kts | 345° |
| 2026-04-30 14:52 | 42.49968 | 1.50236 | 33221 ft | 448 kts | 347° |
| 2026-04-30 14:52 | 42.56151 | 1.49253 | 34035 ft | 445 kts | 347° |
| 2026-04-30 14:52 | 42.59225 | 1.48760 | 34391 ft | 444 kts | 346° |
| 2026-04-30 14:53 | 42.65435 | 1.48358 | 34927 ft | 449 kts | 353° |
| 2026-04-30 14:53 | 42.68564 | 1.48347 | 35187 ft | 449 kts | 353° |
| 2026-04-30 14:54 | 42.74803 | 1.48393 | 35594 ft | 448 kts | 354° |
| 2026-04-30 14:54 | 42.80997 | 1.48431 | 36064 ft | 448 kts | 354° |
| 2026-04-30 14:55 | 42.89742 | 1.48414 | 36108 ft | 450 kts | 354° |
| 2026-04-30 14:56 | 43.02265 | 1.48428 | 36100 ft | 451 kts | 354° |
| 2026-04-30 14:57 | 43.11705 | 1.48430 | 36099 ft | 452 kts | 354° |
| 2026-04-30 14:58 | 43.24290 | 1.48428 | 36098 ft | 452 kts | 354° |
| 2026-04-30 14:58 | 43.33742 | 1.48440 | 36108 ft | 453 kts | 354° |
| 2026-04-30 15:00 | 43.49502 | 1.48443 | 36108 ft | 453 kts | 354° |
| 2026-04-30 15:01 | 43.62104 | 1.48442 | 36098 ft | 454 kts | 354° |
| 2026-04-30 15:01 | 43.71596 | 1.48441 | 36108 ft | 455 kts | 355° |
| 2026-04-30 15:02 | 43.77930 | 1.48448 | 36102 ft | 455 kts | 355° |
| 2026-04-30 15:03 | 43.93736 | 1.48457 | 36098 ft | 455 kts | 355° |
| 2026-04-30 15:04 | 44.07471 | 1.48461 | 36109 ft | 456 kts | 355° |
| 2026-04-30 15:06 | 44.23359 | 1.48467 | 36112 ft | 457 kts | 355° |
| 2026-04-30 15:07 | 44.36086 | 1.48456 | 36118 ft | 458 kts | 356° |
| 2026-04-30 15:08 | 44.48839 | 1.48467 | 36120 ft | 459 kts | 356° |
| 2026-04-30 15:09 | 44.64816 | 1.48472 | 36125 ft | 460 kts | 357° |
| 2026-04-30 15:10 | 44.77583 | 1.48479 | 36131 ft | 461 kts | 358° |
| 2026-04-30 15:11 | 44.96818 | 1.48482 | 36140 ft | 460 kts | 358° |
| 2026-04-30 15:13 | 45.12836 | 1.48491 | 36136 ft | 460 kts | 359° |
| 2026-04-30 15:14 | 45.35225 | 1.48501 | 36133 ft | 460 kts | 359° |
| 2026-04-30 15:17 | 45.55567 | 1.48697 | 36124 ft | 461 kts | 359° |
| 2026-04-30 15:19 | 45.81307 | 1.48514 | 36136 ft | 464 kts | 0° |